Time;durP1;ratioP1;P1;durP2;ratioP2;P2;SDS_P1;SDS_P2;PMS_P1;PMS_P2;Temp;Humidity;BMP_temperature;BMP_pressure;BME280_temperature;BME280_humidity;BME280_pressure;Samples;Min_cycle;Max_cycle;Signal;HPM_P1;HPM_P2
2022/09/29 00:00:02;;;;;;;5.27;3.90;;;;;;;4.87;100.00;99306.44;5016310;28;20640;-72
2022/09/29 00:02:31;;;;;;;5.83;3.83;;;;;;;4.82;100.00;99301.41;5002361;28;20245;-71
2022/09/29 00:04:57;;;;;;;4.70;3.80;;;;;;;4.63;100.00;99306.16;5011314;28;20199;-72
2022/09/29 00:07:23;;;;;;;6.30;4.00;;;;;;;4.68;100.00;99308.63;5012950;28;20684;-72
2022/09/29 00:09:50;;;;;;;5.10;3.80;;;;;;;4.66;100.00;99307.78;5017801;28;20220;-72
2022/09/29 00:12:16;;;;;;;4.33;3.50;;;;;;;4.65;100.00;99304.38;5020366;28;20215;-72
2022/09/29 00:14:44;;;;;;;7.20;4.00;;;;;;;4.65;100.00;99308.69;5018657;28;20199;-72
2022/09/29 00:17:10;;;;;;;5.70;3.60;;;;;;;4.62;100.00;99314.75;5016354;28;20212;-71
2022/09/29 00:19:37;;;;;;;4.47;3.47;;;;;;;4.64;100.00;99318.16;5016505;28;20232;-72
2022/09/29 00:22:04;;;;;;;5.63;3.90;;;;;;;4.64;100.00;99319.91;5020542;28;20204;-72
2022/09/29 00:24:30;;;;;;;5.80;4.50;;;;;;;4.72;100.00;99321.41;5018385;28;20204;-72
2022/09/29 00:26:56;;;;;;;6.57;4.50;;;;;;;4.73;100.00;99323.13;5019822;28;20223;-72
2022/09/29 00:29:23;;;;;;;8.67;4.47;;;;;;;4.73;100.00;99317.09;5014127;28;20334;-73
2022/09/29 00:31:51;;;;;;;4.47;3.43;;;;;;;4.76;100.00;99319.63;5012359;28;20677;-72
2022/09/29 00:34:18;;;;;;;6.53;3.93;;;;;;;4.71;100.00;99317.16;5011828;28;20211;-72
2022/09/29 00:36:45;;;;;;;4.60;3.50;;;;;;;4.67;100.00;99319.84;5012692;28;20204;-71
2022/09/29 00:39:11;;;;;;;6.70;4.27;;;;;;;4.58;100.00;99315.72;5017449;28;20658;-72
2022/09/29 00:41:39;;;;;;;5.10;3.83;;;;;;;4.61;100.00;99314.78;5019240;28;20200;-72
2022/09/29 00:44:27;;;;;;;5.10;3.50;;;;;;;4.54;100.00;99317.53;5019741;28;20212;-72
2022/09/29 00:46:59;;;;;;;5.97;3.80;;;;;;;4.60;100.00;99326.03;5014586;28;20204;-71
2022/09/29 00:49:29;;;;;;;4.90;3.43;;;;;;;4.53;100.00;99318.41;5015425;28;20231;-71
2022/09/29 00:52:01;;;;;;;5.43;3.90;;;;;;;4.48;100.00;99307.31;5023880;28;20196;-72
2022/09/29 00:54:31;;;;;;;5.17;4.03;;;;;;;4.42;100.00;99304.06;5018333;28;20211;-72
2022/09/29 00:57:01;;;;;;;4.40;3.10;;;;;;;4.36;100.00;99311.03;5016011;28;20282;-72
2022/09/29 00:59:35;;;;;;;5.67;4.17;;;;;;;4.38;100.00;99310.16;5021249;28;20235;-72
2022/09/29 01:02:04;;;;;;;7.60;3.87;;;;;;;4.33;100.00;99313.69;5020563;28;20554;-72
2022/09/29 01:04:31;;;;;;;5.77;3.97;;;;;;;4.30;100.00;99316.31;5023943;28;20851;-72
2022/09/29 01:06:58;;;;;;;4.10;3.13;;;;;;;4.23;100.00;99309.59;5019644;28;20192;-72
2022/09/29 01:09:28;;;;;;;6.67;3.73;;;;;;;4.21;100.00;99316.53;5017740;28;20263;-72
2022/09/29 01:11:57;;;;;;;5.73;3.67;;;;;;;4.16;100.00;99315.78;5019221;28;20202;-72
2022/09/29 01:14:25;;;;;;;4.77;3.80;;;;;;;4.12;100.00;99314.16;5022688;28;20199;-73
2022/09/29 01:16:51;;;;;;;6.70;3.90;;;;;;;4.02;100.00;99315.22;5023187;28;20203;-72
2022/09/29 01:19:29;;;;;;;5.60;4.27;;;;;;;4.02;100.00;99320.38;5021998;28;20246;-71
2022/09/29 01:22:04;;;;;;;4.73;3.30;;;;;;;3.89;100.00;99320.63;5022117;28;20206;-71
2022/09/29 01:24:54;;;;;;;6.13;3.83;;;;;;;3.87;100.00;99314.63;5022837;28;20207;-72
2022/09/29 01:27:36;;;;;;;6.87;3.70;;;;;;;3.88;100.00;99315.47;5006555;28;20216;-72
2022/09/29 01:30:15;;;;;;;3.80;3.00;;;;;;;3.83;100.00;99323.28;5022929;28;20211;-72
2022/09/29 01:33:04;;;;;;;5.23;3.67;;;;;;;3.82;100.00;99328.47;5020527;28;20207;-72
2022/09/29 01:35:40;;;;;;;4.70;2.90;;;;;;;3.69;100.00;99328.72;5022128;28;20728;-72
2022/09/29 01:38:17;;;;;;;3.60;3.13;;;;;;;3.62;100.00;99324.53;5013180;28;20221;-72
2022/09/29 01:40:53;;;;;;;4.10;3.17;;;;;;;3.62;100.00;99327.13;5017123;28;20215;-71
2022/09/29 01:43:25;;;;;;;5.60;3.63;;;;;;;3.71;100.00;99320.94;5019917;28;20292;-72
2022/09/29 01:46:01;;;;;;;5.30;3.67;;;;;;;3.82;100.00;99323.31;5013697;28;20207;-71
2022/09/29 01:48:33;;;;;;;6.43;3.43;;;;;;;3.70;100.00;99317.53;5015785;28;20203;-72
2022/09/29 01:51:05;;;;;;;4.60;3.67;;;;;;;3.74;100.00;99321.75;5021443;28;20224;-72
2022/09/29 01:53:37;;;;;;;5.97;3.87;;;;;;;3.82;100.00;99320.75;5019773;28;20471;-72
2022/09/29 01:56:09;;;;;;;4.77;3.20;;;;;;;3.77;100.00;99321.69;5020742;28;20204;-72
2022/09/29 01:58:43;;;;;;;9.47;3.67;;;;;;;3.75;100.00;99332.94;5021015;28;20223;-71
2022/09/29 02:01:13;;;;;;;4.80;3.43;;;;;;;3.77;100.00;99323.44;5016531;28;20207;-73
2022/09/29 02:03:46;;;;;;;6.40;4.03;;;;;;;3.79;100.00;99326.81;5018415;28;20196;-72
2022/09/29 02:06:17;;;;;;;6.10;3.87;;;;;;;3.83;100.00;99332.78;5017666;28;20217;-73
2022/09/29 02:08:49;;;;;;;5.23;3.67;;;;;;;3.73;100.00;99332.94;5018181;28;20193;-71
2022/09/29 02:11:17;;;;;;;9.37;4.80;;;;;;;3.57;100.00;99327.22;5013637;23;20239;-70
2022/09/29 02:13:48;;;;;;;6.13;4.03;;;;;;;3.64;100.00;99334.84;4998144;28;20436;-72
2022/09/29 02:16:17;;;;;;;7.73;4.70;;;;;;;3.69;100.00;99333.03;5000646;28;20553;-72
2022/09/29 02:18:51;;;;;;;8.03;4.40;;;;;;;3.68;100.00;99339.91;5001328;28;20216;-71
2022/09/29 02:21:18;;;;;;;6.67;4.13;;;;;;;3.75;100.00;99335.50;5006183;28;20311;-73
2022/09/29 02:23:44;;;;;;;5.93;4.23;;;;;;;3.87;100.00;99335.28;5002744;28;20204;-72
2022/09/29 02:26:12;;;;;;;6.07;4.37;;;;;;;3.95;100.00;99330.78;4999654;28;20663;-71
2022/09/29 02:28:39;;;;;;;6.87;4.30;;;;;;;4.07;100.00;99344.34;4998283;28;20205;-71
2022/09/29 02:31:06;;;;;;;8.60;5.50;;;;;;;4.17;100.00;99344.13;4998599;28;20610;-72
2022/09/29 02:33:33;;;;;;;5.80;4.17;;;;;;;4.18;100.00;99350.13;4999689;28;20419;-72
2022/09/29 02:36:12;;;;;;;7.40;5.30;;;;;;;4.20;100.00;99352.69;4995598;28;20197;-71
2022/09/29 02:38:47;;;;;;;7.60;4.97;;;;;;;4.22;100.00;99353.47;5005896;28;20220;-71
2022/09/29 02:41:28;;;;;;;7.87;4.97;;;;;;;4.31;100.00;99361.03;4999565;28;20231;-72
2022/09/29 02:44:23;;;;;;;10.57;5.53;;;;;;;4.45;100.00;99361.63;4999728;28;20574;-72
2022/09/29 02:47:05;;;;;;;6.87;4.53;;;;;;;4.47;100.00;99362.44;4996181;28;20249;-71
2022/09/29 02:49:43;;;;;;;8.47;5.80;;;;;;;4.42;100.00;99363.41;4996542;28;20618;-72
2022/09/29 02:52:21;;;;;;;8.33;5.70;;;;;;;4.48;100.00;99358.94;5003671;28;20192;-72
2022/09/29 02:54:59;;;;;;;8.90;5.93;;;;;;;4.58;100.00;99362.19;4996407;28;20282;-70
2022/09/29 02:57:33;;;;;;;6.93;5.13;;;;;;;4.64;100.00;99356.03;4994988;28;20208;-72
2022/09/29 03:00:07;;;;;;;8.27;5.40;;;;;;;4.67;100.00;99356.81;4999865;28;20216;-71
2022/09/29 03:02:34;;;;;;;10.60;5.50;;;;;;;4.66;100.00;99360.31;4998103;28;20192;-71
2022/09/29 03:05:01;;;;;;;8.63;5.00;;;;;;;4.72;100.00;99359.31;4995001;28;20224;-71
2022/09/29 03:07:29;;;;;;;7.97;5.43;;;;;;;4.74;100.00;99362.72;5010370;28;20237;-71
2022/09/29 03:09:55;;;;;;;10.60;5.80;;;;;;;4.72;100.00;99361.91;4999020;28;20616;-72
2022/09/29 03:12:21;;;;;;;10.13;5.87;;;;;;;4.85;100.00;99370.22;5002241;28;20208;-72
2022/09/29 03:14:48;;;;;;;10.30;6.50;;;;;;;4.78;100.00;99371.22;4993481;28;20197;-70
2022/09/29 03:17:14;;;;;;;8.50;5.27;;;;;;;4.74;100.00;99376.47;4993028;28;20209;-71
2022/09/29 03:19:40;;;;;;;11.70;5.70;;;;;;;4.82;100.00;99372.84;4998837;28;20220;-72
2022/09/29 03:22:07;;;;;;;7.20;5.03;;;;;;;4.75;100.00;99379.91;4999366;28;20224;-72
2022/09/29 03:24:35;;;;;;;8.07;5.43;;;;;;;4.80;100.00;99379.78;5000982;28;20201;-71
2022/09/29 03:27:01;;;;;;;9.17;5.10;;;;;;;4.83;100.00;99379.72;5002240;28;20604;-73
2022/09/29 03:29:27;;;;;;;12.80;6.63;;;;;;;4.84;100.00;99384.03;4999019;28;20204;-72
2022/09/29 03:31:54;;;;;;;10.00;6.13;;;;;;;4.88;100.00;99381.31;4997952;28;20208;-72
2022/09/29 03:34:20;;;;;;;7.80;5.57;;;;;;;4.94;100.00;99385.50;4998518;28;20207;-71
2022/09/29 03:36:47;;;;;;;10.37;6.37;;;;;;;4.97;100.00;99380.25;5002409;28;20212;-71
2022/09/29 03:39:13;;;;;;;13.40;6.93;;;;;;;5.01;100.00;99388.78;4995881;28;20217;-72
2022/09/29 03:41:41;;;;;;;7.90;5.70;;;;;;;5.06;100.00;99385.19;4998429;28;20204;-72
2022/09/29 03:44:07;;;;;;;9.23;6.13;;;;;;;5.04;100.00;99391.31;4994148;28;20545;-72
2022/09/29 03:46:34;;;;;;;11.17;6.07;;;;;;;5.07;100.00;99399.00;4996517;28;20211;-72
2022/09/29 03:49:00;;;;;;;9.03;6.13;;;;;;;5.10;100.00;99393.72;4996290;28;20204;-72
2022/09/29 03:51:26;;;;;;;8.30;5.03;;;;;;;5.16;100.00;99400.50;4998931;28;20228;-72
2022/09/29 03:53:53;;;;;;;6.60;4.97;;;;;;;5.20;100.00;99402.13;4999391;28;20208;-72
2022/09/29 03:56:20;;;;;;;8.77;5.67;;;;;;;5.26;100.00;99399.41;4997344;28;21803;-72
2022/09/29 03:58:48;;;;;;;6.90;5.57;;;;;;;5.30;100.00;99407.03;4996027;28;20213;-73
2022/09/29 04:01:14;;;;;;;8.60;5.70;;;;;;;5.23;100.00;99404.66;4998843;28;20500;-72
2022/09/29 04:03:40;;;;;;;9.93;5.90;;;;;;;5.29;100.00;99402.78;4997095;28;20197;-71
2022/09/29 04:06:07;;;;;;;7.33;5.30;;;;;;;5.29;100.00;99400.19;4996633;28;20201;-72
2022/09/29 04:08:35;;;;;;;8.27;4.67;;;;;;;5.25;100.00;99403.72;4991901;28;20211;-71
2022/09/29 04:11:03;;;;;;;7.90;5.20;;;;;;;5.30;100.00;99406.19;4995257;28;20573;-72
2022/09/29 04:13:30;;;;;;;10.67;4.93;;;;;;;5.30;100.00;99412.22;4999352;28;20282;-72
2022/09/29 04:15:59;;;;;;;8.87;5.63;;;;;;;5.34;100.00;99409.56;4997695;28;20207;-71
2022/09/29 04:18:25;;;;;;;8.97;5.43;;;;;;;5.41;100.00;99411.94;4995074;28;20216;-72
2022/09/29 04:20:53;;;;;;;15.57;5.23;;;;;;;5.46;100.00;99412.69;4990303;28;20220;-72
2022/09/29 04:23:20;;;;;;;9.03;5.07;;;;;;;5.42;100.00;99413.66;4993840;28;20196;-72
2022/09/29 04:25:46;;;;;;;8.17;5.40;;;;;;;5.42;100.00;99408.50;4996016;28;20197;-71
2022/09/29 04:28:13;;;;;;;6.30;4.73;;;;;;;5.47;100.00;99413.53;4997072;28;20701;-71
2022/09/29 04:30:39;;;;;;;8.13;5.37;;;;;;;5.44;100.00;99413.63;5002437;28;20224;-72
2022/09/29 04:33:07;;;;;;;8.90;5.30;;;;;;;5.48;100.00;99412.66;4994190;28;21477;-72
2022/09/29 04:35:33;;;;;;;11.97;5.70;;;;;;;5.48;100.00;99410.91;4990942;28;20212;-71
2022/09/29 04:38:00;;;;;;;9.43;5.90;;;;;;;5.47;100.00;99416.13;4996683;28;20199;-72
2022/09/29 04:40:26;;;;;;;8.87;5.57;;;;;;;5.43;100.00;99415.34;4998527;28;20224;-72
2022/09/29 04:42:52;;;;;;;8.23;5.47;;;;;;;5.49;100.00;99409.19;5001225;28;20697;-72
2022/09/29 04:45:20;;;;;;;12.30;5.30;;;;;;;5.50;100.00;99409.16;4994426;28;20836;-72
2022/09/29 04:47:46;;;;;;;5.40;4.10;;;;;;;5.47;100.00;99419.56;4999663;28;20743;-72
2022/09/29 04:50:14;;;;;;;8.33;4.63;;;;;;;5.54;100.00;99419.41;4998246;28;20466;-71
2022/09/29 04:52:42;;;;;;;7.47;5.17;;;;;;;5.56;100.00;99415.91;5002719;28;20421;-72
2022/09/29 04:55:10;;;;;;;7.77;4.97;;;;;;;5.52;100.00;99421.19;5002187;28;20201;-72
2022/09/29 04:57:36;;;;;;;6.77;4.70;;;;;;;5.50;100.00;99423.81;4994545;28;20340;-72
2022/09/29 05:00:03;;;;;;;6.10;4.53;;;;;;;5.52;100.00;99428.94;5000280;28;20601;-72
2022/09/29 05:02:30;;;;;;;6.93;5.23;;;;;;;5.48;100.00;99417.81;5000458;28;20214;-72
2022/09/29 05:04:56;;;;;;;8.73;5.07;;;;;;;5.50;100.00;99416.03;4999838;28;20206;-71
2022/09/29 05:07:24;;;;;;;9.37;5.53;;;;;;;5.54;100.00;99422.84;5002468;28;20251;-72
2022/09/29 05:09:50;;;;;;;8.00;5.03;;;;;;;5.50;100.00;99426.38;5000546;28;20708;-72
2022/09/29 05:12:17;;;;;;;6.60;4.37;;;;;;;5.42;100.00;99425.75;5003815;28;20569;-72
2022/09/29 05:14:43;;;;;;;6.03;4.30;;;;;;;5.52;100.00;99424.59;5003001;28;20209;-72
2022/09/29 05:17:09;;;;;;;6.30;4.40;;;;;;;5.46;100.00;99433.38;5001969;28;20752;-71
2022/09/29 05:19:36;;;;;;;9.43;5.40;;;;;;;5.39;100.00;99429.22;4999933;28;20798;-71
2022/09/29 05:22:02;;;;;;;4.93;3.97;;;;;;;5.40;100.00;99427.50;5005621;28;20577;-71
2022/09/29 05:24:30;;;;;;;6.97;4.83;;;;;;;5.53;100.00;99428.91;5002050;28;20208;-72
2022/09/29 05:26:56;;;;;;;9.07;4.63;;;;;;;5.61;100.00;99433.88;5000821;28;20223;-72
2022/09/29 05:29:23;;;;;;;9.53;4.20;;;;;;;5.56;100.00;99434.00;5002779;28;20201;-72
2022/09/29 05:31:50;;;;;;;6.30;4.80;;;;;;;5.58;100.00;99434.81;4996398;28;20200;-72
2022/09/29 05:34:16;;;;;;;9.00;5.50;;;;;;;5.61;100.00;99434.75;4994353;28;20696;-72
2022/09/29 05:36:43;;;;;;;7.50;4.90;;;;;;;5.57;100.00;99432.25;4998118;28;20568;-71
2022/09/29 05:39:09;;;;;;;6.73;4.97;;;;;;;5.63;100.00;99440.72;5009475;28;20217;-71
2022/09/29 05:41:37;;;;;;;8.00;4.33;;;;;;;5.59;100.00;99438.25;4999570;28;20236;-72
2022/09/29 05:44:04;;;;;;;9.00;5.10;;;;;;;5.70;100.00;99444.00;5003403;28;20196;-72
2022/09/29 05:46:30;;;;;;;5.67;4.03;;;;;;;5.74;100.00;99445.63;4997521;28;20198;-71
2022/09/29 05:48:57;;;;;;;7.17;4.80;;;;;;;5.77;100.00;99440.38;5002007;28;20196;-72
2022/09/29 05:51:26;;;;;;;8.40;4.77;;;;;;;5.83;100.00;99445.38;5002220;28;20577;-72
2022/09/29 05:53:52;;;;;;;7.43;4.93;;;;;;;5.87;100.00;99444.44;5002315;28;20546;-73
2022/09/29 05:56:21;;;;;;;7.20;4.73;;;;;;;5.92;100.00;99440.88;5004220;28;20304;-72
2022/09/29 05:58:49;;;;;;;5.90;4.10;;;;;;;5.88;100.00;99440.94;5001346;28;20221;-72
2022/09/29 06:01:18;;;;;;;6.63;4.50;;;;;;;5.87;100.00;99440.97;4995105;28;20261;-71
2022/09/29 06:03:45;;;;;;;8.80;5.20;;;;;;;5.92;100.00;99444.31;4995670;28;20219;-72
2022/09/29 06:06:14;;;;;;;6.83;4.83;;;;;;;5.96;100.00;99442.50;5000058;28;20667;-72
2022/09/29 06:08:41;;;;;;;10.27;4.87;;;;;;;6.06;100.00;99441.38;4999219;28;20211;-72
2022/09/29 06:11:09;;;;;;;9.43;5.40;;;;;;;6.09;100.00;99440.47;4998968;28;20860;-72
2022/09/29 06:13:38;;;;;;;7.07;4.93;;;;;;;6.13;100.00;99434.31;5005832;28;20205;-72
2022/09/29 06:16:06;;;;;;;7.33;5.00;;;;;;;6.16;100.00;99452.34;4997432;28;20220;-70
2022/09/29 06:18:33;;;;;;;9.20;4.67;;;;;;;6.18;100.00;99440.22;5004798;28;20719;-72
2022/09/29 06:21:01;;;;;;;8.27;4.67;;;;;;;6.21;100.00;99442.75;5001154;28;20241;-72
2022/09/29 06:23:28;;;;;;;7.87;5.13;;;;;;;6.29;100.00;99443.34;5003957;28;20211;-72
2022/09/29 06:25:56;;;;;;;9.87;5.33;;;;;;;6.31;100.00;99446.75;5000327;28;20204;-72
2022/09/29 06:28:22;;;;;;;9.77;5.17;;;;;;;6.36;100.00;99444.03;5000973;28;20236;-71
2022/09/29 06:30:49;;;;;;;11.10;4.63;;;;;;;6.41;100.00;99449.94;5004787;28;20218;-70
2022/09/29 06:33:16;;;;;;;8.80;5.40;;;;;;;6.49;100.00;99455.78;5006504;28;20615;-72
2022/09/29 06:38:30;;;;;;;8.47;5.70;;;;;;;6.60;100.00;99450.28;5006298;28;20205;-72
2022/09/29 06:40:57;;;;;;;9.93;6.03;;;;;;;6.66;100.00;99452.69;5003926;28;20305;-72
2022/09/29 06:43:23;;;;;;;8.50;5.70;;;;;;;6.66;100.00;99455.28;5010577;28;20221;-71
2022/09/29 06:45:50;;;;;;;10.90;5.73;;;;;;;6.74;100.00;99455.06;4997609;28;20201;-72
2022/09/29 06:48:17;;;;;;;8.03;5.57;;;;;;;6.81;100.00;99454.00;5002797;28;20231;-71
2022/09/29 06:50:44;;;;;;;13.63;6.93;;;;;;;6.83;100.00;99450.44;5001414;28;20229;-72
2022/09/29 06:53:10;;;;;;;11.47;6.20;;;;;;;6.78;100.00;99452.31;5001732;28;20203;-72
2022/09/29 06:55:36;;;;;;;10.37;6.33;;;;;;;6.75;100.00;99451.56;4999136;28;20225;-72
2022/09/29 06:58:03;;;;;;;14.43;6.77;;;;;;;6.83;100.00;99447.03;5004190;28;20225;-71
2022/09/29 07:00:29;;;;;;;10.27;7.00;;;;;;;6.86;100.00;99446.06;4997762;28;20242;-72
2022/09/29 07:02:56;;;;;;;8.47;5.77;;;;;;;6.93;100.00;99447.56;5002753;28;20218;-72
2022/09/29 07:05:23;;;;;;;11.60;6.23;;;;;;;7.10;100.00;99454.84;4999330;28;20208;-72
2022/09/29 07:07:50;;;;;;;14.20;6.60;;;;;;;7.17;100.00;99448.59;5005292;28;20211;-72
2022/09/29 07:10:16;;;;;;;10.40;5.70;;;;;;;7.19;100.00;99458.03;4998240;28;20880;-71
2022/09/29 07:12:45;;;;;;;8.60;5.60;;;;;;;7.23;100.00;99453.59;5000201;28;20205;-71
2022/09/29 07:15:12;;;;;;;10.00;5.90;;;;;;;7.28;100.00;99456.91;5004182;28;20238;-71
2022/09/29 07:17:39;;;;;;;9.50;5.50;;;;;;;7.38;100.00;99454.84;5006096;28;20200;-71
2022/09/29 07:20:06;;;;;;;12.43;5.77;;;;;;;7.32;100.00;99452.47;5004689;28;20227;-72
2022/09/29 07:22:34;;;;;;;11.40;5.90;;;;;;;7.35;100.00;99452.34;5001392;28;20211;-72
2022/09/29 07:25:01;;;;;;;12.83;6.63;;;;;;;7.36;100.00;99454.88;5005239;28;20215;-72
2022/09/29 07:27:27;;;;;;;8.80;5.70;;;;;;;7.33;100.00;99451.53;5002144;28;20290;-72
2022/09/29 07:29:54;;;;;;;13.60;7.00;;;;;;;7.33;100.00;99449.78;5000743;28;20225;-71
2022/09/29 07:32:20;;;;;;;10.60;6.10;;;;;;;7.37;100.00;99455.75;5004842;28;20199;-72
2022/09/29 07:34:47;;;;;;;13.87;6.50;;;;;;;7.41;100.00;99454.75;5005829;28;20204;-70
2022/09/29 07:37:13;;;;;;;18.20;8.87;;;;;;;7.46;100.00;99458.06;4998094;28;20316;-71
2022/09/29 07:39:41;;;;;;;20.70;10.13;;;;;;;7.57;100.00;99462.91;5005992;28;20220;-72
2022/09/29 07:42:07;;;;;;;16.33;9.40;;;;;;;7.61;100.00;99466.25;5001957;28;20247;-71
2022/09/29 07:44:34;;;;;;;14.30;7.37;;;;;;;7.72;100.00;99461.53;5002812;28;20778;-72
2022/09/29 07:47:00;;;;;;;13.20;6.57;;;;;;;7.87;100.00;99453.25;4997428;28;20700;-72
2022/09/29 07:49:27;;;;;;;14.80;5.97;;;;;;;7.77;100.00;99460.50;5002436;28;20286;-71
2022/09/29 07:51:53;;;;;;;13.70;6.47;;;;;;;7.85;100.00;99454.22;5015795;28;20481;-72
2022/09/29 07:54:19;;;;;;;11.03;6.10;;;;;;;8.00;100.00;99469.25;5003507;28;20736;-72
2022/09/29 07:56:47;;;;;;;13.03;6.57;;;;;;;8.20;100.00;99471.19;4997354;28;20450;-72
2022/09/29 07:59:13;;;;;;;14.70;7.47;;;;;;;8.20;100.00;99473.78;5009327;28;20208;-71
2022/09/29 08:01:40;;;;;;;12.53;6.90;;;;;;;8.20;100.00;99465.97;4997598;28;20427;-71
2022/09/29 08:04:06;;;;;;;13.20;6.37;;;;;;;8.18;100.00;99469.50;5007440;28;20270;-70
2022/09/29 08:06:32;;;;;;;13.13;6.43;;;;;;;8.37;100.00;99461.94;4999127;28;20204;-71
2022/09/29 08:09:00;;;;;;;11.50;6.50;;;;;;;8.57;100.00;99463.88;5001502;28;20197;-72
2022/09/29 08:11:27;;;;;;;12.80;6.50;;;;;;;8.60;100.00;99474.13;5025832;23;20239;-72
2022/09/29 08:13:55;;;;;;;17.13;8.17;;;;;;;8.61;100.00;99470.63;5022516;28;20283;-72
2022/09/29 08:16:22;;;;;;;13.87;7.23;;;;;;;8.77;100.00;99478.72;5019516;28;20487;-72
2022/09/29 08:18:49;;;;;;;19.37;7.37;;;;;;;8.90;100.00;99480.81;5018868;28;20559;-72
2022/09/29 08:21:15;;;;;;;16.33;8.67;;;;;;;8.93;100.00;99484.19;5022391;28;20221;-71
2022/09/29 08:23:43;;;;;;;19.60;8.13;;;;;;;8.97;100.00;99484.03;5014115;28;20204;-72
2022/09/29 08:26:12;;;;;;;18.33;8.27;;;;;;;9.01;100.00;99492.56;5018353;28;20285;-73
2022/09/29 08:28:40;;;;;;;18.37;8.53;;;;;;;9.01;100.00;99492.56;5019660;28;20591;-72
2022/09/29 08:31:12;;;;;;;19.60;9.07;;;;;;;9.06;100.00;99491.47;5016933;28;20224;-73
2022/09/29 08:33:39;;;;;;;18.63;8.20;;;;;;;9.11;100.00;99493.88;5019630;28;20202;-72
2022/09/29 08:36:13;;;;;;;18.20;8.70;;;;;;;9.13;100.00;99499.91;5018321;28;20212;-72
2022/09/29 08:38:42;;;;;;;16.27;8.03;;;;;;;9.08;100.00;99505.25;5019731;28;20359;-71
2022/09/29 08:41:19;;;;;;;17.27;7.90;;;;;;;9.19;100.00;99501.41;5021161;28;20317;-71
2022/09/29 08:43:47;;;;;;;16.13;8.00;;;;;;;9.23;100.00;99506.44;5018180;28;20209;-71
2022/09/29 08:46:24;;;;;;;17.03;8.27;;;;;;;9.22;100.00;99515.13;5015507;28;20249;-71
2022/09/29 08:48:52;;;;;;;12.93;7.43;;;;;;;9.17;100.00;99511.88;5017960;28;20207;-72
2022/09/29 08:51:26;;;;;;;14.70;8.20;;;;;;;9.17;100.00;99509.25;5015083;28;20232;-72
2022/09/29 08:53:57;;;;;;;13.43;7.47;;;;;;;9.20;100.00;99514.34;5018047;28;20205;-72
2022/09/29 08:56:26;;;;;;;12.73;7.17;;;;;;;9.13;100.00;99528.50;5015369;28;20205;-72
2022/09/29 08:58:52;;;;;;;12.67;6.90;;;;;;;9.27;100.00;99522.78;5015693;28;20205;-72
2022/09/29 09:01:29;;;;;;;12.17;6.70;;;;;;;9.37;100.00;99537.09;5020321;28;20712;-72
2022/09/29 09:04:35;;;;;;;14.17;7.50;;;;;;;9.55;100.00;99527.75;5013480;28;20208;-73
2022/09/29 09:07:12;;;;;;;11.83;6.57;;;;;;;9.80;100.00;99535.44;4997015;28;20228;-73
2022/09/29 09:09:52;;;;;;;12.80;6.00;;;;;;;9.88;100.00;99532.50;5015171;28;20594;-72
2022/09/29 09:12:31;;;;;;;10.77;6.13;;;;;;;10.02;100.00;99537.16;5017498;28;20219;-72
2022/09/29 09:15:22;;;;;;;10.03;6.07;;;;;;;10.15;100.00;99548.78;5018501;28;20565;-72
2022/09/29 09:18:05;;;;;;;9.23;6.37;;;;;;;10.38;100.00;99534.81;5016649;28;20213;-72
2022/09/29 09:20:35;;;;;;;10.77;6.77;;;;;;;10.66;100.00;99540.56;5018767;28;20232;-72
2022/09/29 09:23:09;;;;;;;7.60;5.10;;;;;;;10.83;100.00;99539.84;5022616;28;20234;-73
2022/09/29 09:25:40;;;;;;;6.43;4.57;;;;;;;11.00;100.00;99542.53;5021477;28;20208;-72
2022/09/29 09:28:14;;;;;;;6.27;4.07;;;;;;;11.23;100.00;99545.88;5015654;28;20207;-73
2022/09/29 09:30:45;;;;;;;7.60;3.93;;;;;;;11.49;100.00;99552.50;5020440;28;20712;-73
2022/09/29 09:33:21;;;;;;;5.53;3.47;;;;;;;11.59;100.00;99552.88;5019118;28;20199;-72
2022/09/29 09:35:52;;;;;;;4.00;3.10;;;;;;;11.49;100.00;99558.56;5013300;28;20214;-73
2022/09/29 09:38:22;;;;;;;4.53;3.10;;;;;;;11.43;100.00;99556.22;5018844;28;20206;-72
2022/09/29 09:40:54;;;;;;;7.83;4.77;;;;;;;11.33;100.00;99562.81;5021761;28;20719;-73
2022/09/29 09:43:26;;;;;;;8.23;4.80;;;;;;;11.46;100.00;99556.06;5019199;28;20858;-72
2022/09/29 09:45:57;;;;;;;5.57;2.37;;;;;;;11.58;100.00;99561.66;5014824;28;20204;-72
2022/09/29 09:48:32;;;;;;;4.30;2.23;;;;;;;11.51;100.00;99563.69;5018118;28;20846;-73
2022/09/29 09:51:02;;;;;;;3.33;2.30;;;;;;;11.47;100.00;99567.38;5014203;28;20233;-73
2022/09/29 09:53:35;;;;;;;2.73;1.70;;;;;;;11.44;100.00;99564.91;5016447;28;20263;-73
2022/09/29 09:56:15;;;;;;;2.27;1.90;;;;;;;11.33;100.00;99570.63;5019297;28;20963;-73
2022/09/29 09:59:01;;;;;;;2.97;2.17;;;;;;;11.41;100.00;99565.88;5017967;28;20227;-72
2022/09/29 10:01:27;;;;;;;4.60;2.17;;;;;;;11.40;100.00;99569.44;5016516;28;20231;-72
2022/09/29 10:03:58;;;;;;;4.53;2.73;;;;;;;11.47;100.00;99568.22;5017936;28;20201;-73
2022/09/29 10:06:25;;;;;;;2.80;2.20;;;;;;;11.41;100.00;99568.50;5018005;28;20204;-73
2022/09/29 10:08:51;;;;;;;2.57;1.73;;;;;;;11.34;100.00;99573.19;5020464;28;20224;-72
2022/09/29 10:11:23;;;;;;;1.90;1.60;;;;;;;11.41;100.00;99565.88;5020010;28;20230;-72
2022/09/29 10:13:58;;;;;;;3.23;2.30;;;;;;;11.41;100.00;99568.50;5018528;28;20622;-71
2022/09/29 10:16:31;;;;;;;4.73;2.93;;;;;;;11.24;100.00;99566.69;5016427;28;23185;-72
2022/09/29 10:18:58;;;;;;;5.93;2.73;;;;;;;11.25;100.00;99559.69;5015380;28;20211;-72
2022/09/29 10:21:37;;;;;;;3.73;2.73;;;;;;;11.13;100.00;99563.69;5015204;28;20240;-73
2022/09/29 10:24:06;;;;;;;2.70;2.33;;;;;;;11.16;100.00;99563.56;5018236;28;20620;-73
2022/09/29 10:26:35;;;;;;;3.63;2.60;;;;;;;11.06;100.00;99564.88;5016118;28;20203;-73
2022/09/29 10:29:16;;;;;;;4.17;2.77;;;;;;;11.10;100.00;99562.09;5015690;28;20261;-73
2022/09/29 10:31:43;;;;;;;4.07;3.13;;;;;;;11.01;100.00;99564.25;5020060;28;20216;-73
2022/09/29 10:34:16;;;;;;;6.23;2.77;;;;;;;10.99;100.00;99564.31;5013662;28;20208;-73
2022/09/29 10:36:51;;;;;;;4.37;2.73;;;;;;;11.04;100.00;99566.72;5016608;28;20602;-72
2022/09/29 10:39:31;;;;;;;7.37;3.23;;;;;;;10.95;100.00;99575.81;5014688;28;20686;-73
2022/09/29 10:41:58;;;;;;;3.37;2.50;;;;;;;11.03;100.00;99575.44;5015398;28;20220;-73
2022/09/29 10:44:31;;;;;;;4.30;2.20;;;;;;;11.13;100.00;99581.94;5015394;28;20672;-72
2022/09/29 10:46:58;;;;;;;3.67;2.40;;;;;;;11.30;100.00;99579.44;5018722;28;20203;-73
2022/09/29 10:49:28;;;;;;;4.80;2.83;;;;;;;11.35;100.00;99589.66;5017309;28;20208;-73
2022/09/29 10:51:59;;;;;;;4.17;2.67;;;;;;;11.51;100.00;99582.81;5016395;28;20222;-72
2022/09/29 10:54:27;;;;;;;3.53;2.73;;;;;;;11.57;100.00;99579.06;5016509;28;20211;-72
2022/09/29 10:56:55;;;;;;;4.87;3.23;;;;;;;11.56;100.00;99583.44;5010721;28;20652;-72
2022/09/29 10:59:23;;;;;;;4.43;3.60;;;;;;;11.58;100.00;99583.38;5014322;28;20223;-72
2022/09/29 11:01:52;;;;;;;3.47;2.63;;;;;;;11.73;100.00;99585.28;5018807;28;20287;-73
2022/09/29 11:04:24;;;;;;;3.93;3.20;;;;;;;11.80;100.00;99588.41;5016496;28;20210;-73
2022/09/29 11:06:52;;;;;;;3.53;2.43;;;;;;;11.81;100.00;99592.72;5015985;28;20205;-73
2022/09/29 11:09:30;;;;;;;4.33;3.00;;;;;;;11.88;100.00;99601.97;5013712;28;20204;-72
2022/09/29 11:11:58;;;;;;;5.03;2.80;;;;;;;11.99;100.00;99598.03;5014339;28;20611;-73
2022/09/29 11:14:26;;;;;;;4.13;2.80;;;;;;;12.06;100.00;99604.66;5013719;28;20756;-73
2022/09/29 11:16:55;;;;;;;3.77;2.93;;;;;;;12.09;100.00;99605.34;5011116;28;20205;-73
2022/09/29 11:19:21;;;;;;;3.83;2.87;;;;;;;12.21;100.00;99590.84;5013029;28;20270;-72
2022/09/29 11:22:11;;;;;;;4.07;2.50;;;;;;;12.29;100.00;99609.63;5015001;28;20290;-73
2022/09/29 11:24:57;;;;;;;3.50;2.67;;;;;;;12.42;100.00;99604.63;5015445;28;20206;-73
2022/09/29 11:27:37;;;;;;;3.20;2.37;;;;;;;12.36;100.00;99610.13;5011833;28;20291;-71
2022/09/29 11:30:09;;;;;;;3.27;2.50;;;;;;;12.43;100.00;99619.34;5006387;28;20230;-71
2022/09/29 11:33:04;;;;;;;2.83;2.30;;;;;;;12.48;100.00;99606.06;5007563;28;20251;-72
2022/09/29 11:35:43;;;;;;;3.47;2.50;;;;;;;12.56;100.00;99603.94;5008011;28;21169;-73
2022/09/29 11:38:30;;;;;;;5.43;3.00;;;;;;;12.63;100.00;99602.69;5014163;28;20835;-72
2022/09/29 11:41:06;;;;;;;4.03;2.47;;;;;;;12.68;100.00;99605.91;5013706;28;20225;-73
2022/09/29 11:43:44;;;;;;;4.83;3.27;;;;;;;12.58;100.00;99617.75;5009714;28;20203;-72